Time;durP1;ratioP1;P1;durP2;ratioP2;P2;SDS_P1;SDS_P2;PMS_P1;PMS_P2;Temp;Humidity;BMP_temperature;BMP_pressure;BME280_temperature;BME280_humidity;BME280_pressure;Samples;Min_cycle;Max_cycle;Signal;HPM_P1;HPM_P2
2022/08/25 00:00:31;;;;;;;21.42;15.15;;;;;;;25.48;68.11;101792.47;6079188;23;20418;-79
2022/08/25 00:02:57;;;;;;;19.15;14.75;;;;;;;25.48;67.85;101802.25;6067044;23;20009;-77
2022/08/25 00:05:25;;;;;;;19.15;14.70;;;;;;;25.28;69.11;101798.47;6077003;23;20089;-80
2022/08/25 00:07:51;;;;;;;21.05;15.15;;;;;;;25.34;68.63;101792.91;6068368;23;20010;-77
2022/08/25 00:10:16;;;;;;;18.65;14.75;;;;;;;25.36;68.78;101792.88;6073767;23;20005;-79
2022/08/25 00:12:42;;;;;;;21.40;16.05;;;;;;;25.29;68.84;101784.19;6073914;23;20687;-79
2022/08/25 00:15:08;;;;;;;21.15;15.85;;;;;;;25.22;69.23;101782.66;6068482;23;20010;-79
2022/08/25 00:17:34;;;;;;;22.60;16.42;;;;;;;25.17;69.56;101781.94;6071994;23;20299;-79
2022/08/25 00:19:59;;;;;;;22.77;17.02;;;;;;;25.09;69.81;101778.63;6072746;23;20073;-78
2022/08/25 00:22:25;;;;;;;23.92;16.77;;;;;;;25.07;69.90;101780.47;6079951;23;20034;-80
2022/08/25 00:24:50;;;;;;;22.20;16.38;;;;;;;25.08;69.94;101778.66;6058260;23;20103;-80
2022/08/25 00:27:16;;;;;;;20.77;15.52;;;;;;;25.14;69.55;101786.47;6072519;23;20013;-80
2022/08/25 00:29:42;;;;;;;21.55;16.00;;;;;;;25.11;69.41;101773.25;6073806;23;20744;-79
2022/08/25 00:32:07;;;;;;;23.90;16.98;;;;;;;25.04;69.34;101786.78;6070444;23;20022;-77
2022/08/25 00:34:35;;;;;;;19.80;15.30;;;;;;;25.04;69.90;101777.91;6069213;23;20009;-77
2022/08/25 00:37:03;;;;;;;21.08;16.05;;;;;;;25.03;69.45;101776.16;6065412;23;20009;-77
2022/08/25 00:39:29;;;;;;;22.38;15.88;;;;;;;25.07;69.41;101774.28;6073938;23;20024;-76
2022/08/25 00:41:56;;;;;;;20.52;15.40;;;;;;;24.98;69.96;101772.78;6082338;23;20010;-78
2022/08/25 00:44:23;;;;;;;20.75;16.73;;;;;;;25.04;69.58;101775.25;6070340;23;20508;-78
2022/08/25 00:46:55;;;;;;;21.27;16.20;;;;;;;25.08;69.17;101768.88;6070991;23;20010;-78
2022/08/25 00:49:29;;;;;;;19.83;16.15;;;;;;;24.90;69.19;101772.13;6069550;23;20016;-78
2022/08/25 00:52:02;;;;;;;22.08;16.83;;;;;;;24.74;69.95;101768.19;6048124;23;20014;-79
2022/08/25 00:54:39;;;;;;;20.38;15.85;;;;;;;24.85;69.96;101768.72;6080120;23;20013;-78
2022/08/25 00:57:07;;;;;;;22.35;16.58;;;;;;;24.84;70.19;101762.50;6065356;23;20417;-78
2022/08/25 00:59:34;;;;;;;21.15;16.10;;;;;;;24.93;69.86;101762.25;6079312;23;20354;-77
2022/08/25 01:02:00;;;;;;;22.77;18.10;;;;;;;24.81;70.36;101765.28;6076937;23;20018;-78
2022/08/25 01:04:26;;;;;;;25.63;17.88;;;;;;;24.95;70.19;101767.50;6067693;23;20017;-79
2022/08/25 01:06:52;;;;;;;22.23;17.23;;;;;;;24.95;70.17;101767.50;6065796;23;20014;-78
2022/08/25 01:09:18;;;;;;;26.08;18.73;;;;;;;24.92;69.98;101767.63;6077173;23;20089;-78
2022/08/25 01:11:45;;;;;;;21.90;17.45;;;;;;;24.99;69.82;101766.50;6077167;23;20017;-78
2022/08/25 01:14:14;;;;;;;22.80;17.63;;;;;;;25.03;69.80;101765.47;6058182;23;20038;-78
2022/08/25 01:16:39;;;;;;;20.27;16.17;;;;;;;25.10;69.11;101756.38;6069851;23;20006;-78
2022/08/25 01:19:07;;;;;;;22.90;18.20;;;;;;;24.98;69.02;101748.75;6067174;23;20365;-78
2022/08/25 01:21:45;;;;;;;21.92;16.70;;;;;;;24.96;69.17;101745.25;6077746;23;20112;-78
2022/08/25 01:24:14;;;;;;;23.88;17.85;;;;;;;24.90;69.31;101743.66;6078054;23;20010;-79
2022/08/25 01:26:40;;;;;;;23.42;17.83;;;;;;;24.78;70.23;101741.34;6075824;23;20042;-79
2022/08/25 01:29:20;;;;;;;22.08;17.77;;;;;;;24.86;69.48;101742.00;6063633;23;20562;-78
2022/08/25 01:31:50;;;;;;;27.75;19.60;;;;;;;24.69;70.32;101741.66;6069048;23;20421;-78
2022/08/25 01:34:16;;;;;;;25.05;19.10;;;;;;;24.69;70.36;101739.00;6073705;23;20009;-78
2022/08/25 01:36:46;;;;;;;27.40;17.70;;;;;;;24.78;69.51;101741.34;6078509;23;20442;-78
2022/08/25 01:39:13;;;;;;;25.23;18.27;;;;;;;24.79;69.66;101739.56;6060590;23;20018;-77
2022/08/25 01:42:05;;;;;;;24.25;17.33;;;;;;;24.74;69.37;101734.38;6074191;23;20392;-78
2022/08/25 01:44:34;;;;;;;23.88;17.42;;;;;;;24.67;69.56;101731.03;6068739;23;20034;-79
2022/08/25 01:47:00;;;;;;;23.20;16.90;;;;;;;24.58;69.86;101731.31;6062862;23;20009;-78
2022/08/25 01:49:25;;;;;;;22.13;17.45;;;;;;;24.56;70.35;101727.84;6076235;23;20024;-79
2022/08/25 01:51:56;;;;;;;22.60;17.17;;;;;;;24.54;70.28;101728.78;6078536;23;20101;-79
2022/08/25 01:54:22;;;;;;;21.58;17.08;;;;;;;24.50;70.27;101728.03;6074815;23;20016;-77
2022/08/25 01:56:47;;;;;;;22.17;17.50;;;;;;;24.56;69.79;101733.16;6068849;23;20293;-80
2022/08/25 01:59:21;;;;;;;24.17;17.00;;;;;;;24.53;69.72;101724.38;6078953;23;20005;-78
2022/08/25 02:01:47;;;;;;;21.63;16.67;;;;;;;24.55;69.94;101726.09;6072810;23;20132;-78
2022/08/25 02:04:12;;;;;;;20.85;16.08;;;;;;;24.59;69.31;101729.50;6079730;23;20490;-77
2022/08/25 02:06:38;;;;;;;22.48;17.23;;;;;;;24.43;69.61;101731.78;6081096;23;20005;-78
2022/08/25 02:09:08;;;;;;;25.02;17.90;;;;;;;24.42;69.69;101727.38;6063716;23;20351;-79
2022/08/25 02:11:37;;;;;;;23.30;18.02;;;;;;;24.25;70.07;101725.22;6077694;23;20062;-79
2022/08/25 02:14:04;;;;;;;19.73;15.45;;;;;;;24.37;69.71;101720.44;6077038;23;20343;-79
2022/08/25 02:16:33;;;;;;;25.80;18.20;;;;;;;24.12;71.23;101713.16;6073369;23;20578;-78
2022/08/25 02:18:59;;;;;;;23.08;17.83;;;;;;;24.16;70.71;101716.59;6068477;23;20037;-79
2022/08/25 02:21:25;;;;;;;23.30;18.33;;;;;;;24.01;71.84;101715.25;6077104;23;20478;-78
2022/08/25 02:23:52;;;;;;;23.52;17.20;;;;;;;24.09;71.27;101723.03;6075466;23;20434;-78
2022/08/25 02:26:18;;;;;;;20.65;15.10;;;;;;;24.21;71.09;101714.72;6071704;23;20842;-80
2022/08/25 02:28:51;;;;;;;25.13;17.20;;;;;;;24.19;70.75;101714.75;6077705;23;20006;-78
2022/08/25 02:31:18;;;;;;;22.90;16.52;;;;;;;24.18;70.65;101714.75;6079420;23;20018;-78
2022/08/25 02:33:44;;;;;;;23.27;17.58;;;;;;;24.03;71.26;101709.91;6080512;23;20065;-77
2022/08/25 02:36:10;;;;;;;20.08;15.15;;;;;;;24.20;70.32;101710.28;6082103;23;20006;-78
2022/08/25 02:38:36;;;;;;;21.88;16.50;;;;;;;24.20;70.33;101711.19;6065191;23;20013;-79
2022/08/25 02:41:12;;;;;;;20.80;16.45;;;;;;;24.21;69.85;101707.56;6068594;23;20022;-78
2022/08/25 02:43:40;;;;;;;18.77;14.63;;;;;;;24.20;70.30;101691.66;6076404;23;20342;-79
2022/08/25 02:46:05;;;;;;;22.27;16.30;;;;;;;24.14;69.94;101700.66;6081963;23;20410;-78
2022/08/25 02:48:31;;;;;;;20.35;15.70;;;;;;;24.04;70.50;101700.97;6078352;23;20600;-77
2022/08/25 02:50:59;;;;;;;19.60;15.98;;;;;;;23.99;70.53;101697.56;6070034;23;20462;-77
2022/08/25 02:53:27;;;;;;;19.80;15.38;;;;;;;24.00;70.77;101694.84;6074690;23;20024;-77
2022/08/25 02:55:53;;;;;;;21.98;16.13;;;;;;;24.03;70.56;101684.09;6077475;23;20510;-78
2022/08/25 02:58:19;;;;;;;21.63;15.70;;;;;;;24.03;70.03;101689.44;6074406;23;20006;-77
2022/08/25 03:00:49;;;;;;;18.40;15.80;;;;;;;24.00;70.19;101688.66;6078825;23;20009;-77
2022/08/25 03:03:15;;;;;;;22.23;16.33;;;;;;;23.83;71.27;101683.81;6077707;23;20114;-77
2022/08/25 03:05:41;;;;;;;23.17;17.48;;;;;;;23.69;71.29;101684.22;6075176;23;20572;-78
2022/08/25 03:08:08;;;;;;;19.20;15.93;;;;;;;23.86;71.05;101676.59;6070772;23;20174;-79
2022/08/25 03:10:34;;;;;;;20.23;15.70;;;;;;;23.93;70.53;101677.31;6075648;23;20204;-77
2022/08/25 03:12:59;;;;;;;19.70;15.20;;;;;;;23.85;70.13;101673.97;6067940;23;20014;-78
2022/08/25 03:15:26;;;;;;;20.02;15.40;;;;;;;23.78;70.36;101669.78;6080576;23;20010;-78
2022/08/25 03:17:54;;;;;;;20.90;16.27;;;;;;;23.74;70.89;101676.97;6080329;23;20312;-79
2022/08/25 03:20:20;;;;;;;22.08;16.35;;;;;;;23.63;70.91;101680.84;6072118;23;20118;-78
2022/08/25 03:22:48;;;;;;;22.25;16.75;;;;;;;23.38;72.05;101669.97;6073044;23;20006;-76
2022/08/25 03:27:58;;;;;;;19.95;15.70;;;;;;;23.60;70.66;101654.31;6077916;23;20029;-79
2022/08/25 03:30:25;;;;;;;18.25;15.27;;;;;;;23.56;71.11;101653.53;6065515;23;20343;-78
2022/08/25 03:32:51;;;;;;;19.05;15.50;;;;;;;23.57;70.90;101654.41;6068581;23;20044;-78
2022/08/25 03:35:17;;;;;;;20.95;16.33;;;;;;;23.34;71.33;101650.56;6071719;23;20100;-78
2022/08/25 03:37:42;;;;;;;21.90;16.25;;;;;;;23.31;71.65;101653.28;6070940;23;20010;-77
2022/08/25 10:31:40;;;;;;;6.47;3.72;;;;;;;35.82;26.26;101550.63;6060260;22;2449549;-71
2022/08/25 10:34:18;;;;;;;7.47;3.80;;;;;;;36.15;25.72;101548.72;6007498;23;20053;-71
2022/08/25 10:37:20;;;;;;;9.05;3.70;;;;;;;35.59;26.55;101550.63;6083619;23;20010;-70
2022/08/25 10:40:15;;;;;;;8.32;3.83;;;;;;;36.18;25.17;101540.31;6066314;23;20460;-71
2022/08/25 10:42:58;;;;;;;10.02;3.80;;;;;;;35.61;25.91;101534.25;6063141;23;20014;-71
2022/08/25 10:45:42;;;;;;;5.45;3.65;;;;;;;35.67;26.80;101533.75;6065813;23;20077;-70
2022/08/25 10:48:27;;;;;;;7.32;3.40;;;;;;;36.01;25.53;101527.28;6058992;23;20069;-71
2022/08/25 10:51:07;;;;;;;8.15;3.80;;;;;;;35.89;25.86;101527.44;6011718;23;20052;-70
2022/08/25 10:53:54;;;;;;;5.20;3.50;;;;;;;36.04;25.58;101526.16;6060036;23;20020;-71
2022/08/25 10:57:16;;;;;;;6.03;3.70;;;;;;;36.37;24.53;101519.75;6035769;23;20347;-71
2022/08/25 10:59:54;;;;;;;9.13;3.72;;;;;;;35.67;25.30;101515.63;5916054;23;20604;-71
2022/08/25 11:02:45;;;;;;;7.00;3.63;;;;;;;36.42;24.05;101504.78;6054278;23;20014;-71
2022/08/25 11:05:19;;;;;;;10.18;3.45;;;;;;;36.73;25.86;101513.91;6018741;23;20241;-71
2022/08/25 11:07:50;;;;;;;9.35;3.40;;;;;;;35.22;25.39;101506.63;6056910;23;20061;-70
2022/08/25 11:10:26;;;;;;;11.70;3.70;;;;;;;35.35;24.60;101504.66;6057438;23;20086;-70
2022/08/25 11:12:58;;;;;;;8.93;3.60;;;;;;;35.03;25.87;101508.19;6041368;23;20077;-70
2022/08/25 11:15:38;;;;;;;7.68;3.50;;;;;;;35.72;25.95;101515.25;6021891;23;20105;-71
2022/08/25 11:18:10;;;;;;;7.93;3.58;;;;;;;36.32;24.73;101511.16;6049369;23;20018;-70
2022/08/25 11:20:42;;;;;;;6.65;3.42;;;;;;;37.02;23.24;101513.25;6055222;23;20010;-69
2022/08/25 11:23:28;;;;;;;8.50;3.75;;;;;;;37.11;23.52;101510.59;6015373;23;20892;-70
2022/08/25 11:26:01;;;;;;;9.07;3.50;;;;;;;36.62;26.82;101508.53;6052835;23;20006;-72
2022/08/25 11:29:15;;;;;;;9.82;3.40;;;;;;;36.05;24.35;101506.16;6051150;23;21006;-70
2022/08/25 11:31:46;;;;;;;;;;;;;;;36.15;23.83;101510.69;6042162;23;20089;-70
2022/08/25 11:34:14;;;;;;;9.95;3.70;;;;;;;36.16;25.58;101511.59;6056463;23;20632;-71
2022/08/25 11:36:49;;;;;;;5.35;3.33;;;;;;;35.76;28.52;101509.44;6051331;23;20033;-70
2022/08/25 11:39:48;;;;;;;4.55;3.28;;;;;;;36.13;25.30;101512.66;6044163;23;20877;-69
2022/08/25 11:42:32;;;;;;;5.85;3.45;;;;;;;36.67;24.96;101510.88;6048411;23;20018;-71
2022/08/25 11:44:58;;;;;;;5.20;3.80;;;;;;;36.89;25.10;101500.75;6038371;23;20418;-71
2022/08/25 11:47:29;;;;;;;7.72;3.90;;;;;;;36.65;24.65;101499.28;6079981;23;20060;-71
2022/08/25 11:50:03;;;;;;;5.73;3.70;;;;;;;36.71;25.52;101498.75;6056070;23;20090;-70
2022/08/25 11:52:31;;;;;;;11.70;4.10;;;;;;;36.97;24.69;101500.91;6048261;23;20718;-72
2022/08/25 11:55:39;;;;;;;9.35;3.80;;;;;;;36.83;25.11;101497.69;6039306;23;20045;-72
2022/08/25 11:58:51;;;;;;;7.53;3.83;;;;;;;36.76;25.19;101497.38;6051137;23;20010;-71
2022/08/25 12:01:38;;;;;;;7.37;3.93;;;;;;;36.72;24.16;101493.16;5993860;23;20022;-70
2022/08/25 12:04:22;;;;;;;6.82;3.72;;;;;;;36.38;25.47;101497.06;5983194;23;20014;-70
2022/08/25 12:07:06;;;;;;;6.95;3.53;;;;;;;36.53;24.36;101493.03;6029354;23;20021;-71
2022/08/25 12:09:54;;;;;;;5.55;3.70;;;;;;;36.23;25.34;101491.06;6048086;23;20030;-71
2022/08/25 12:12:47;;;;;;;5.32;3.60;;;;;;;36.28;24.27;101488.84;6036560;23;20032;-71
2022/08/25 12:15:18;;;;;;;;;;;;;;;36.23;26.07;101490.22;6004907;23;20023;-67
2022/08/25 12:17:44;;;;;;;5.65;3.67;;;;;;;36.04;26.05;101478.19;6017401;23;20774;-69
2022/08/25 12:20:55;;;;;;;8.93;4.00;;;;;;;36.18;25.30;101487.88;6015854;23;20145;-68
2022/08/25 12:23:38;;;;;;;7.75;3.85;;;;;;;36.34;24.91;101480.16;6025492;23;20021;-68
2022/08/25 12:26:16;;;;;;;6.13;3.55;;;;;;;36.25;25.53;101486.38;6021447;23;20011;-69
2022/08/25 12:29:12;;;;;;;10.55;3.80;;;;;;;36.04;25.89;101480.03;6013981;23;20014;-68
2022/08/25 12:31:47;;;;;;;8.50;3.80;;;;;;;35.49;26.96;101478.28;6018122;23;20101;-68
2022/08/25 12:34:49;;;;;;;7.43;3.70;;;;;;;35.87;26.80;101485.97;6014387;23;20030;-74
2022/08/25 12:37:20;;;;;;;5.72;3.75;;;;;;;35.75;26.16;101482.44;6024702;23;20052;-69
2022/08/25 12:39:49;;;;;;;7.80;3.97;;;;;;;35.85;25.94;101479.84;6021342;23;20037;-69
2022/08/25 12:42:42;;;;;;;6.45;4.05;;;;;;;35.90;25.56;101478.47;6013702;23;20495;-69
2022/08/25 12:45:53;;;;;;;7.93;3.92;;;;;;;35.72;27.46;101480.84;6016522;23;20022;-70
2022/08/25 12:48:56;;;;;;;8.00;4.22;;;;;;;35.81;26.99;101476.50;6017957;23;20021;-69
2022/08/25 12:51:26;;;;;;;6.68;3.78;;;;;;;35.72;27.23;101480.84;6029263;23;20089;-70
2022/08/25 12:54:20;;;;;;;7.10;3.97;;;;;;;35.75;27.32;101480.59;6021947;23;20625;-69
2022/08/25 12:56:56;;;;;;;12.20;4.50;;;;;;;35.91;28.54;101479.31;6020266;23;20147;-72
2022/08/25 12:59:47;;;;;;;9.73;4.60;;;;;;;35.77;27.88;101475.03;6015562;23;20101;-70
2022/08/25 13:02:35;;;;;;;7.57;4.38;;;;;;;35.51;29.67;101481.72;6024250;23;20015;-69
2022/08/25 13:05:22;;;;;;;10.00;4.50;;;;;;;35.52;30.38;101478.88;6008842;23;20070;-70
2022/08/25 13:07:55;;;;;;;8.18;4.47;;;;;;;35.42;29.78;101483.34;6026549;23;20291;-69
2022/08/25 13:10:53;;;;;;;9.52;4.88;;;;;;;35.41;31.03;101484.31;6025061;23;20339;-70
2022/08/25 13:13:38;;;;;;;8.43;5.85;;;;;;;35.12;30.52;101491.22;6021308;23;20389;-71
2022/08/25 13:16:07;;;;;;;8.43;5.05;;;;;;;35.01;30.71;101479.34;6008305;23;20018;-69
2022/08/25 13:18:40;;;;;;;7.53;4.97;;;;;;;34.96;30.71;101483.41;6013953;23;20346;-70
2022/08/25 13:21:18;;;;;;;10.13;5.75;;;;;;;35.01;29.93;101475.81;6017702;23;20031;-69
2022/08/25 13:23:50;;;;;;;10.45;5.25;;;;;;;34.73;30.59;101473.53;6017987;23;20371;-69
2022/08/25 13:26:53;;;;;;;9.50;5.25;;;;;;;34.68;30.52;101470.31;6020225;23;20017;-72
2022/08/25 13:29:26;;;;;;;9.10;4.53;;;;;;;34.85;30.87;101469.88;6017213;23;20014;-68
2022/08/25 13:31:59;;;;;;;8.90;4.63;;;;;;;34.79;30.55;101464.94;6018413;23;20023;-68
2022/08/25 13:34:26;;;;;;;;;;;;;;;34.93;30.18;101460.16;6029457;23;20447;-71
2022/08/25 13:39:54;;;;;;;11.30;5.40;;;;;;;34.58;31.51;101464.75;6019343;23;20061;-69
2022/08/25 13:42:21;;;;;;;11.20;5.70;;;;;;;34.56;33.46;101461.28;6017143;23;20015;-68
2022/08/25 13:44:56;;;;;;;10.52;6.32;;;;;;;34.59;34.72;101463.75;6015225;23;20093;-70
2022/08/25 13:47:32;;;;;;;11.15;5.50;;;;;;;34.38;32.27;101460.88;6023640;23;20007;-69
2022/08/25 13:50:25;;;;;;;7.85;5.05;;;;;;;34.41;30.80;101462.47;6000347;23;20025;-69
2022/08/25 13:53:24;;;;;;;9.52;5.00;;;;;;;34.49;30.54;101455.50;6014093;23;20556;-71
2022/08/25 13:55:51;;;;;;;6.68;4.80;;;;;;;34.64;29.64;101456.16;6014073;23;20555;-70
2022/08/25 13:58:22;;;;;;;9.13;4.68;;;;;;;34.65;30.26;101455.16;6023194;23;20070;-69
2022/08/25 14:01:06;;;;;;;7.60;4.50;;;;;;;34.74;30.41;101461.72;6015345;23;20505;-70
2022/08/25 14:03:39;;;;;;;6.78;4.40;;;;;;;34.59;30.65;101459.19;6018310;23;20015;-70
2022/08/25 14:06:22;;;;;;;13.75;5.00;;;;;;;34.60;30.50;101451.94;6011924;23;20035;-70
2022/08/25 14:09:04;;;;;;;8.77;5.03;;;;;;;34.61;32.07;101459.94;6014411;23;20011;-71
2022/08/25 14:11:33;;;;;;;7.80;5.20;;;;;;;34.49;31.96;101457.34;6016137;23;20010;-69
2022/08/25 14:14:21;;;;;;;9.90;7.20;;;;;;;34.33;35.85;101457.66;6021988;23;20002;-70
2022/08/25 14:17:06;;;;;;;9.75;6.65;;;;;;;34.43;36.30;101446.97;5998578;23;20022;-70
2022/08/25 14:19:33;;;;;;;9.20;6.75;;;;;;;34.15;34.30;101446.38;6004485;23;20069;-68
2022/08/25 14:22:01;;;;;;;10.02;5.35;;;;;;;34.20;33.66;101446.91;6023567;23;20080;-69
2022/08/25 14:24:30;;;;;;;9.25;4.85;;;;;;;34.21;31.84;101445.09;6024166;23;20431;-69
2022/08/25 14:26:55;;;;;;;8.18;4.93;;;;;;;34.10;32.19;101436.84;6012421;23;20007;-69
2022/08/25 14:29:21;;;;;;;7.20;4.97;;;;;;;34.03;32.00;101446.47;6024472;23;20011;-69
2022/08/25 14:31:47;;;;;;;10.43;4.80;;;;;;;34.09;32.52;101444.16;6017235;23;20026;-70
2022/08/25 14:34:20;;;;;;;9.13;5.60;;;;;;;34.05;31.66;101450.75;6022144;23;20035;-69
2022/08/25 14:36:54;;;;;;;12.13;7.07;;;;;;;34.04;34.96;101454.44;6020705;23;20011;-70
2022/08/25 14:39:28;;;;;;;10.98;6.60;;;;;;;33.92;35.94;101457.19;6021129;23;20139;-70
2022/08/25 14:41:53;;;;;;;12.95;7.45;;;;;;;33.92;37.34;101457.19;5976015;23;20022;-69
2022/08/25 14:44:19;;;;;;;14.23;9.30;;;;;;;33.80;38.99;101457.16;6022802;23;20308;-69
2022/08/25 14:46:53;;;;;;;17.85;12.85;;;;;;;33.59;40.94;101472.25;6014167;23;20017;-70
2022/08/25 14:49:24;;;;;;;18.27;11.75;;;;;;;33.34;41.92;101454.25;6018465;23;20040;-71
2022/08/25 14:51:50;;;;;;;16.33;10.45;;;;;;;33.09;40.81;101456.09;6024005;23;20010;-70
2022/08/25 14:54:17;;;;;;;19.50;13.02;;;;;;;32.80;42.40;101464.44;6026225;23;20011;-70
2022/08/25 14:56:49;;;;;;;18.95;15.73;;;;;;;32.54;44.13;101468.91;6017288;23;20082;-71
2022/08/25 14:59:20;;;;;;;30.13;22.00;;;;;;;32.20;44.88;101464.13;6026746;23;20017;-70
2022/08/25 15:01:52;;;;;;;30.08;22.27;;;;;;;31.84;46.04;101475.47;6021470;23;20007;-70
2022/08/25 15:04:21;;;;;;;28.00;23.55;;;;;;;31.51;46.92;101472.25;6031217;23;20023;-71
2022/08/25 15:06:55;;;;;;;29.58;24.52;;;;;;;31.26;47.80;101478.34;6015240;23;20073;-71
2022/08/25 15:09:21;;;;;;;32.45;24.08;;;;;;;31.12;48.16;101481.03;6026693;23;20380;-71
2022/08/25 15:11:50;;;;;;;33.45;28.25;;;;;;;31.01;48.82;101489.78;6019456;23;20011;-71
2022/08/25 15:14:18;;;;;;;35.63;27.73;;;;;;;30.88;49.21;101484.28;6018276;23;20894;-71
2022/08/25 15:16:54;;;;;;;38.65;29.33;;;;;;;30.83;48.75;101486.38;6015574;23;20018;-70
2022/08/25 15:19:22;;;;;;;36.10;28.85;;;;;;;30.54;49.71;101484.63;6017727;23;20547;-70
2022/08/25 15:21:50;;;;;;;36.45;29.10;;;;;;;30.45;49.52;101491.38;6020398;23;20431;-71
2022/08/25 15:24:17;;;;;;;33.80;27.30;;;;;;;30.50;49.43;101483.91;6027488;23;20007;-71
2022/08/25 15:26:50;;;;;;;36.08;27.50;;;;;;;30.39;50.10;101490.88;6017785;23;20015;-69
2022/08/25 15:29:17;;;;;;;36.80;27.48;;;;;;;30.34;49.70;101501.91;6023592;23;20070;-71
2022/08/25 15:31:43;;;;;;;35.50;26.55;;;;;;;30.24;50.24;101498.91;6015462;23;20096;-71
2022/08/25 15:34:12;;;;;;;34.33;25.08;;;;;;;30.09;51.11;101493.53;6024069;23;20030;-69
2022/08/25 15:36:37;;;;;;;30.73;24.05;;;;;;;30.16;51.09;101497.59;6024436;23;20007;-70
2022/08/25 15:39:15;;;;;;;38.22;25.83;;;;;;;30.09;50.85;101488.16;6011369;23;20021;-70
2022/08/25 15:41:59;;;;;;;33.65;27.00;;;;;;;29.87;51.60;101491.19;6028286;23;20487;-72
2022/08/25 15:44:26;;;;;;;32.95;25.65;;;;;;;29.96;51.24;101482.63;6012342;23;20530;-70
2022/08/25 15:46:52;;;;;;;35.20;27.58;;;;;;;29.70;51.47;101492.13;6004602;23;20015;-71
2022/08/25 15:49:18;;;;;;;34.97;25.85;;;;;;;29.72;51.91;101484.00;6021268;23;20011;-71
2022/08/25 15:51:44;;;;;;;34.13;26.30;;;;;;;29.51;52.86;101488.78;6015660;23;20045;-72
2022/08/25 15:54:13;;;;;;;35.03;26.75;;;;;;;29.35;52.84;101490.56;6016481;23;20013;-71
2022/08/25 15:56:39;;;;;;;33.90;26.20;;;;;;;29.24;52.69;101483.06;6021231;23;20644;-71
2022/08/25 15:59:05;;;;;;;35.95;25.77;;;;;;;29.08;53.38;101486.69;6013162;23;20042;-71
2022/08/25 16:01:31;;;;;;;34.30;26.20;;;;;;;28.91;53.47;101490.28;5956376;23;20010;-72
2022/08/25 16:03:56;;;;;;;36.78;25.95;;;;;;;28.94;53.59;101487.41;6018738;23;20078;-71
2022/08/25 16:06:24;;;;;;;37.53;26.45;;;;;;;28.83;53.62;101477.25;6015802;23;20014;-70
2022/08/25 16:08:49;;;;;;;38.58;25.05;;;;;;;28.82;53.87;101486.25;6014588;23;20086;-70
2022/08/25 16:11:18;;;;;;;32.55;23.38;;;;;;;28.76;54.55;101481.19;6017376;23;20113;-71
2022/08/25 16:13:46;;;;;;;34.53;25.30;;;;;;;28.87;53.78;101477.94;6028433;23;20141;-71
2022/08/25 16:16:14;;;;;;;34.55;27.95;;;;;;;28.66;54.02;101477.25;6017901;23;20842;-70
2022/08/25 16:18:40;;;;;;;30.45;23.67;;;;;;;28.75;53.97;101473.22;6024076;23;20063;-80
2022/08/25 16:21:09;;;;;;;32.17;24.45;;;;;;;28.77;53.40;101482.06;5991107;23;20335;-71
2022/08/25 16:23:36;;;;;;;34.67;26.30;;;;;;;28.63;53.87;101477.38;6007536;23;20049;-72
2022/08/25 16:26:04;;;;;;;32.75;25.38;;;;;;;28.39;54.34;101476.84;6020406;23;20380;-72
2022/08/25 16:28:30;;;;;;;31.40;24.02;;;;;;;28.74;53.75;101474.16;6015791;23;20037;-72
2022/08/25 16:31:00;;;;;;;31.83;23.33;;;;;;;28.82;54.46;101478.19;6025943;23;20038;-71
2022/08/25 16:33:30;;;;;;;31.67;23.15;;;;;;;28.73;54.01;101470.59;5993722;23;20011;-71
2022/08/25 16:36:08;;;;;;;30.23;20.85;;;;;;;28.95;54.05;101463.19;6016989;23;20015;-70
2022/08/25 16:38:35;;;;;;;33.38;21.48;;;;;;;29.00;53.81;101471.84;6020669;23;20030;-71
2022/08/25 16:41:05;;;;;;;32.45;21.90;;;;;;;29.13;53.12;101471.19;6011547;23;20090;-72
2022/08/25 16:43:31;;;;;;;28.27;20.55;;;;;;;29.12;53.01;101469.44;6000030;23;20018;-71
2022/08/25 16:46:01;;;;;;;29.58;21.45;;;;;;;28.95;53.59;101476.59;6019877;23;20007;-71
2022/08/25 16:48:28;;;;;;;32.15;22.13;;;;;;;28.97;53.16;101466.63;5983742;23;20093;-71
2022/08/25 16:50:54;;;;;;;24.02;20.40;;;;;;;28.91;53.24;101469.63;6020972;23;20010;-71
2022/08/25 16:56:04;;;;;;;28.92;21.15;;;;;;;28.78;53.79;101478.44;6020264;23;20021;-82
2022/08/25 16:58:31;;;;;;;28.45;20.58;;;;;;;28.77;53.71;101476.72;6008790;23;20503;-70
2022/08/25 17:01:11;;;;;;;29.48;22.08;;;;;;;28.79;53.78;101475.66;6020868;23;20003;-71
2022/08/25 17:03:38;;;;;;;29.38;20.90;;;;;;;28.54;54.77;101485.94;6023729;23;20018;-72
2022/08/25 17:06:05;;;;;;;28.58;21.42;;;;;;;28.42;54.40;101484.72;5987507;23;20021;-72
2022/08/25 17:08:32;;;;;;;29.63;21.73;;;;;;;28.35;54.41;101477.97;5988730;23;20062;-71
2022/08/25 17:11:06;;;;;;;28.13;21.27;;;;;;;27.99;55.55;101472.59;6018108;23;20109;-75
2022/08/25 17:13:36;;;;;;;27.35;19.90;;;;;;;28.13;54.71;101475.47;6020642;23;20490;-70
2022/08/25 17:16:05;;;;;;;26.50;18.92;;;;;;;28.07;55.16;101477.56;6023627;23;20011;-70
2022/08/25 17:18:32;;;;;;;25.85;18.60;;;;;;;27.91;55.86;101476.59;5969255;23;20014;-70
2022/08/25 17:21:11;;;;;;;26.30;18.75;;;;;;;27.79;56.05;101468.22;6024710;23;20050;-73
2022/08/25 17:23:38;;;;;;;27.10;19.60;;;;;;;27.72;55.88;101476.63;6016745;23;20015;-70
2022/08/25 17:26:05;;;;;;;27.33;19.17;;;;;;;27.87;55.47;101473.22;5993138;23;20002;-70
2022/08/25 17:28:31;;;;;;;28.50;18.15;;;;;;;27.58;56.75;101482.63;6010962;23;20355;-71
2022/08/25 17:30:57;;;;;;;22.88;17.50;;;;;;;27.60;56.65;101478.06;6015763;23;20358;-70
2022/08/25 17:33:23;;;;;;;26.05;17.67;;;;;;;27.40;57.85;101480.78;6012900;23;20494;-71
2022/08/25 17:35:51;;;;;;;22.58;16.13;;;;;;;27.53;57.32;101479.31;5996330;23;20011;-71
2022/08/25 17:38:19;;;;;;;25.23;16.88;;;;;;;27.35;57.81;101478.34;5983931;23;20038;-71
2022/08/25 17:40:45;;;;;;;22.85;15.38;;;;;;;27.45;57.42;101479.63;6022142;23;20385;-71
2022/08/25 17:43:11;;;;;;;22.90;14.63;;;;;;;27.36;57.73;101479.22;6014596;23;20018;-72
2022/08/25 17:45:37;;;;;;;23.27;15.55;;;;;;;27.34;57.77;101487.31;6020329;23;20011;-71
2022/08/25 17:48:09;;;;;;;22.02;14.48;;;;;;;27.31;57.91;101499.97;5999123;23;20025;-71
2022/08/25 17:50:35;;;;;;;18.33;12.73;;;;;;;27.20;58.44;101503.13;6016466;23;20013;-71
2022/08/25 17:53:02;;;;;;;25.80;12.90;;;;;;;27.05;59.03;101504.72;6016136;23;20113;-70
2022/08/25 17:55:28;;;;;;;20.10;11.40;;;;;;;26.87;59.36;101507.31;6018243;23;20011;-72
2022/08/25 17:57:53;;;;;;;18.35;9.75;;;;;;;26.84;59.51;101508.28;5998126;23;20010;-71
2022/08/25 18:00:20;;;;;;;16.95;9.00;;;;;;;26.79;59.31;101521.00;5987121;23;20335;-74
2022/08/25 18:02:45;;;;;;;19.50;7.82;;;;;;;26.71;60.07;101517.81;6019940;23;20010;-73
2022/08/25 18:05:12;;;;;;;17.00;7.38;;;;;;;26.51;60.41;101520.47;6016285;23;20011;-71
2022/08/25 18:07:39;;;;;;;21.40;7.38;;;;;;;26.51;60.27;101533.84;6010725;23;20601;-78
2022/08/25 18:10:06;;;;;;;14.40;6.55;;;;;;;26.51;60.08;101532.03;6013968;23;20007;-72
2022/08/25 18:12:32;;;;;;;17.00;6.93;;;;;;;26.52;60.33;101543.59;6022761;23;20076;-71
2022/08/25 18:14:58;;;;;;;19.83;6.22;;;;;;;26.54;60.08;101537.25;6025839;23;20431;-70
2022/08/25 18:17:24;;;;;;;16.48;6.18;;;;;;;26.55;60.08;101541.66;5995150;23;20031;-71
2022/08/25 18:19:50;;;;;;;18.13;6.88;;;;;;;26.50;60.13;101545.47;6018100;23;20018;-71
2022/08/25 18:22:16;;;;;;;17.85;7.03;;;;;;;26.40;60.29;101538.78;6000044;23;20011;-72
2022/08/25 18:24:43;;;;;;;18.33;6.97;;;;;;;26.40;60.11;101538.78;5997343;23;20014;-69
2022/08/25 18:27:08;;;;;;;21.70;7.97;;;;;;;25.80;62.24;101545.59;6019321;23;20022;-70
2022/08/25 18:29:41;;;;;;;18.20;7.72;;;;;;;25.88;61.51;101537.28;6024832;23;20011;-70
2022/08/25 18:32:08;;;;;;;17.05;8.15;;;;;;;25.91;61.75;101539.88;6010066;23;20022;-71
2022/08/25 18:34:34;;;;;;;23.23;9.05;;;;;;;25.90;61.27;101540.78;6021001;23;20030;-70
2022/08/25 18:40:21;;;;;;;18.63;8.25;;;;;;;25.93;61.57;101538.84;6017559;23;20041;-71